createdAt,value
2022-08-11T00:01:16.800Z,41.58
2022-08-11T00:03:51.600Z,42.02
2022-08-11T00:06:29.971Z,41.64
2022-08-11T00:08:58.941Z,39.81
2022-08-11T00:11:35.785Z,40.43
2022-08-11T00:14:06.468Z,39.78
2022-08-11T00:16:35.597Z,39.07
2022-08-11T00:19:05.117Z,39.39
2022-08-11T00:22:04.087Z,39.05
2022-08-11T00:24:53.321Z,38.90
2022-08-11T00:27:22.438Z,38.25
2022-08-11T00:29:55.370Z,38.74
2022-08-11T00:32:24.092Z,38.87
2022-08-11T00:34:53.156Z,38.85
2022-08-11T00:37:50.419Z,39.00
2022-08-11T00:40:27.533Z,38.48
2022-08-11T00:43:05.595Z,39.01
2022-08-11T00:45:47.691Z,39.20
2022-08-11T00:48:28.331Z,39.11
2022-08-11T00:51:10.478Z,39.06
2022-08-11T00:53:50.044Z,39.19
2022-08-11T00:56:48.574Z,39.26
2022-08-11T00:59:36.983Z,39.33
2022-08-11T01:02:19.653Z,39.44
2022-08-11T01:05:29.598Z,39.51
2022-08-11T01:08:25.123Z,39.80
2022-08-11T01:11:20.526Z,40.07
2022-08-11T01:14:17.913Z,40.62
2022-08-11T01:17:32.655Z,38.27
2022-08-11T01:20:47.556Z,41.88
2022-08-11T01:23:49.963Z,41.94
2022-08-11T01:27:19.241Z,41.12
2022-08-11T01:30:30.827Z,40.42
2022-08-11T01:33:54.288Z,40.17
2022-08-11T01:37:01.859Z,40.44
2022-08-11T01:40:11.867Z,40.31
2022-08-11T01:43:32.960Z,40.21
2022-08-11T01:46:07.190Z,40.25
2022-08-11T01:48:45.011Z,39.95
2022-08-11T01:51:25.802Z,40.40
2022-08-11T01:54:04.054Z,40.52
2022-08-11T01:56:59.108Z,40.61
2022-08-11T01:59:35.407Z,40.73
2022-08-11T02:02:42.996Z,40.97
2022-08-11T02:05:27.235Z,40.92
2022-08-11T02:08:01.831Z,41.01
2022-08-11T02:11:02.588Z,41.16
2022-08-11T02:13:44.641Z,41.40
2022-08-11T02:16:31.071Z,41.30
2022-08-11T02:19:30.751Z,41.28
2022-08-11T02:22:23.199Z,41.46
2022-08-11T02:25:01.032Z,41.45
2022-08-11T02:32:10.971Z,41.60
2022-08-11T02:34:59.531Z,41.98
2022-08-11T02:37:45.310Z,41.90
2022-08-11T02:40:25.140Z,41.90
2022-08-11T02:43:05.667Z,41.74
2022-08-11T02:45:47.385Z,42.01
2022-08-11T02:48:51.777Z,42.73
2022-08-11T02:51:31.163Z,42.21
2022-08-11T02:54:09.907Z,42.26
2022-08-11T02:56:52.376Z,42.17
2022-08-11T02:59:53.518Z,42.36
2022-08-11T03:02:41.289Z,42.26
2022-08-11T03:05:25.193Z,42.44
2022-08-11T03:08:09.101Z,42.42
2022-08-11T03:11:09.433Z,42.20
2022-08-11T03:14:02.447Z,42.45
2022-08-11T03:16:48.287Z,42.47
2022-08-11T03:19:29.631Z,42.42
2022-08-11T03:22:23.341Z,42.44
2022-08-11T03:25:03.736Z,42.30
2022-08-11T03:27:44.523Z,42.46
2022-08-11T03:30:17.588Z,42.59
2022-08-11T03:33:19.134Z,42.88
2022-08-11T03:36:02.250Z,42.69
2022-08-11T03:38:49.336Z,42.91
2022-08-11T03:42:03.692Z,42.89
2022-08-11T03:44:53.522Z,43.03
2022-08-11T03:47:55.417Z,43.06
2022-08-11T03:50:56.853Z,43.28
2022-08-11T03:54:04.940Z,43.36
2022-08-11T03:57:09.001Z,43.46
2022-08-11T04:00:27.739Z,43.52
2022-08-11T04:03:31.455Z,43.72
2022-08-11T04:06:42.859Z,43.81
2022-08-11T04:09:48.830Z,43.84
2022-08-11T04:12:35.870Z,43.99
2022-08-11T04:15:59.097Z,43.98
2022-08-11T04:19:00.608Z,44.00
2022-08-11T04:21:58.607Z,43.94
2022-08-11T04:24:52.638Z,44.15
2022-08-11T04:27:52.602Z,44.28
2022-08-11T04:30:29.329Z,44.40
2022-08-11T04:33:34.415Z,44.69
2022-08-11T04:36:43.741Z,44.77
2022-08-11T04:39:28.348Z,44.46
2022-08-11T04:42:48.097Z,44.64
2022-08-11T04:45:47.451Z,44.62
2022-08-11T04:48:57.923Z,44.92
2022-08-11T04:52:35.965Z,44.68
2022-08-11T04:56:05.696Z,44.65
2022-08-11T04:59:13.123Z,44.85
2022-08-11T05:01:53.017Z,43.40
2022-08-11T05:05:18.722Z,41.07
2022-08-11T05:08:23.907Z,39.47
2022-08-11T05:11:19.437Z,38.38
2022-08-11T05:14:09.253Z,37.82
2022-08-11T05:17:07.373Z,37.37
2022-08-11T05:19:53.473Z,37.00
2022-08-11T05:22:43.506Z,36.41
2022-08-11T05:26:42.670Z,36.49
2022-08-11T05:28:51.521Z,35.70
2022-08-11T05:31:43.589Z,35.56
2022-08-11T05:34:40.281Z,34.13
2022-08-11T05:37:26.169Z,35.81
2022-08-11T05:40:18.885Z,37.13
2022-08-11T05:43:13.219Z,43.80
2022-08-11T05:46:03.956Z,45.57
2022-08-11T05:48:58.631Z,40.41
2022-08-11T05:51:55.479Z,36.68
2022-08-11T05:54:46.176Z,36.16
2022-08-11T05:57:44.048Z,34.65
2022-08-11T06:00:12.742Z,33.56
2022-08-11T06:02:43.861Z,33.51
2022-08-11T06:05:15.156Z,38.30
2022-08-11T06:07:48.832Z,38.12
2022-08-11T06:10:28.634Z,38.33
2022-08-11T06:12:59.510Z,39.60
2022-08-11T06:15:29.173Z,39.46
2022-08-11T06:18:01.382Z,40.33
2022-08-11T06:20:37.555Z,43.52
2022-08-11T06:23:09.911Z,45.20
2022-08-11T06:25:39.453Z,43.80
2022-08-11T06:28:09.519Z,44.36
2022-08-11T06:30:42.077Z,43.18
2022-08-11T06:33:19.198Z,42.82
2022-08-11T06:36:00.755Z,44.28
2022-08-11T06:38:55.652Z,45.55
2022-08-11T06:41:31.955Z,42.98
2022-08-11T06:44:23.483Z,40.60
2022-08-11T06:46:56.050Z,37.62
2022-08-11T06:49:52.582Z,36.04
2022-08-11T06:52:35.040Z,40.83
2022-08-11T06:55:55.777Z,38.98
2022-08-11T06:58:46.779Z,36.87
2022-08-11T07:01:24.097Z,37.80
2022-08-11T07:04:05.312Z,36.99
2022-08-11T07:07:12.282Z,37.53
2022-08-11T07:10:39.010Z,32.84
2022-08-11T07:13:45.316Z,37.60
2022-08-11T07:16:26.472Z,36.70
2022-08-11T07:19:30.080Z,34.21
2022-08-11T07:22:20.950Z,34.54
2022-08-11T07:25:14.395Z,33.90
2022-08-11T07:28:15.460Z,35.69
2022-08-11T07:30:44.916Z,34.80
2022-08-11T07:34:05.516Z,33.08
2022-08-11T07:36:05.172Z,33.81
2022-08-11T07:38:46.087Z,32.87
2022-08-11T07:41:18.619Z,31.32
2022-08-11T07:43:50.531Z,29.85
2022-08-11T07:46:38.390Z,30.70
2022-08-11T07:49:28.537Z,31.65
2022-08-11T07:52:15.204Z,29.64
2022-08-11T07:54:50.107Z,31.76
2022-08-11T07:58:14.647Z,32.70
2022-08-11T08:00:47.081Z,31.07
2022-08-11T08:03:39.261Z,32.08
2022-08-11T08:06:41.421Z,31.17
2022-08-11T08:09:29.496Z,29.39
2022-08-11T08:12:18.789Z,29.98
2022-08-11T08:15:05.194Z,30.69
2022-08-11T08:18:09.669Z,33.38
2022-08-11T08:20:49.921Z,30.82
2022-08-11T08:23:33.193Z,28.64
2022-08-11T08:26:04.724Z,30.44
2022-08-11T08:28:35.005Z,30.49
2022-08-11T08:31:03.453Z,30.27
2022-08-11T08:33:34.324Z,28.62
2022-08-11T08:36:16.369Z,34.17
2022-08-11T08:38:49.579Z,31.55
2022-08-11T08:41:23.753Z,32.45
2022-08-11T08:44:05.897Z,32.69
2022-08-11T08:46:52.918Z,29.85
2022-08-11T08:49:28.349Z,29.50
2022-08-11T08:52:26.240Z,28.33
2022-08-11T08:54:55.632Z,29.17
2022-08-11T08:57:28.488Z,29.14
2022-08-11T08:59:58.779Z,30.22
2022-08-11T09:02:34.456Z,28.26
2022-08-11T09:05:05.937Z,27.97
2022-08-11T09:07:39.495Z,27.27
2022-08-11T09:10:11.552Z,28.47
2022-08-11T09:12:42.819Z,29.45
2022-08-11T09:15:15.011Z,30.23
2022-08-11T09:17:51.333Z,27.30
2022-08-11T09:20:23.951Z,27.37
2022-08-11T09:26:31.282Z,28.59
2022-08-11T09:29:01.827Z,29.21
2022-08-11T09:31:39.031Z,27.47
2022-08-11T09:34:09.500Z,28.41
2022-08-11T09:36:58.439Z,28.41
2022-08-11T09:39:45.175Z,26.33
2022-08-11T09:42:16.582Z,28.10
2022-08-11T09:44:53.838Z,27.33
2022-08-11T09:47:25.520Z,27.83
2022-08-11T09:50:00.643Z,25.35
2022-08-11T09:52:33.343Z,29.39
2022-08-11T09:55:03.215Z,26.44
2022-08-11T09:57:49.360Z,27.03
2022-08-11T10:00:18.678Z,25.63
2022-08-11T10:02:49.729Z,27.19
2022-08-11T10:05:38.635Z,27.96
2022-08-11T10:08:13.812Z,26.91
2022-08-11T10:10:43.269Z,27.72
2022-08-11T10:14:31.061Z,28.96
2022-08-11T10:16:15.174Z,29.20
2022-08-11T10:18:53.378Z,29.74
2022-08-11T10:21:31.350Z,26.92
2022-08-11T10:24:21.348Z,24.52
2022-08-11T10:26:54.668Z,27.85
2022-08-11T10:29:45.198Z,24.62
2022-08-11T10:32:49.408Z,25.85
2022-08-11T10:35:29.244Z,26.29
2022-08-11T10:38:08.911Z,29.15
2022-08-11T10:41:10.773Z,28.42
2022-08-11T10:44:01.378Z,26.88
2022-08-11T10:46:47.820Z,28.64
2022-08-11T10:49:17.291Z,25.94
2022-08-11T10:52:03.992Z,26.79
2022-08-11T10:54:52.174Z,27.68
2022-08-11T10:57:41.124Z,25.23
2022-08-11T11:00:15.233Z,26.45
2022-08-11T11:02:45.276Z,25.13
2022-08-11T11:05:35.104Z,27.59
2022-08-11T11:08:32.897Z,26.61
2022-08-11T11:11:05.058Z,27.04
2022-08-11T11:13:55.556Z,25.51
2022-08-11T11:16:50.119Z,25.19
2022-08-11T11:19:23.943Z,25.56
2022-08-11T11:22:15.631Z,24.60
2022-08-11T11:24:57.714Z,26.17
2022-08-11T11:27:33.831Z,26.08
2022-08-11T11:30:08.432Z,27.24
2022-08-11T11:32:49.812Z,30.41
2022-08-11T11:35:36.892Z,27.72
2022-08-11T11:38:13.861Z,26.16
2022-08-11T11:40:43.918Z,27.88
2022-08-11T11:43:13.061Z,26.12
2022-08-11T11:45:43.534Z,25.74
2022-08-11T11:48:13.970Z,25.70
2022-08-11T11:50:42.896Z,28.43
2022-08-11T11:53:14.146Z,26.44
2022-08-11T11:55:44.013Z,27.10
2022-08-11T11:58:31.435Z,27.11
2022-08-11T12:01:24.192Z,26.65
2022-08-11T12:03:55.635Z,29.94
2022-08-11T12:06:25.990Z,26.80
2022-08-11T12:08:57.302Z,26.86
2022-08-11T12:11:45.430Z,26.22
2022-08-11T12:14:17.514Z,25.08
2022-08-11T12:16:49.723Z,25.75
2022-08-11T12:19:23.880Z,24.92
2022-08-11T12:22:13.455Z,23.82
2022-08-11T12:25:00.031Z,25.53
2022-08-11T12:27:31.258Z,26.07
2022-08-11T12:30:05.941Z,27.84
2022-08-11T12:32:38.888Z,25.74
2022-08-11T12:35:09.612Z,23.88
2022-08-11T12:37:41.715Z,24.79
2022-08-11T12:40:43.688Z,27.09
2022-08-11T12:43:40.633Z,24.30
2022-08-11T12:46:11.588Z,24.09
2022-08-11T12:49:05.244Z,28.88
2022-08-11T12:52:01.028Z,24.30
2022-08-11T12:54:52.734Z,24.45
2022-08-11T12:57:46.821Z,24.06
2022-08-11T13:00:34.406Z,25.46
2022-08-11T13:03:22.170Z,25.95
2022-08-11T13:05:55.963Z,26.34
2022-08-11T13:08:26.448Z,24.97
2022-08-11T13:11:15.810Z,23.51
2022-08-11T13:13:55.553Z,23.89
2022-08-11T13:16:27.680Z,23.78
2022-08-11T13:18:57.449Z,25.81
2022-08-11T13:21:29.167Z,26.68
2022-08-11T13:24:00.999Z,26.32
2022-08-11T13:26:46.842Z,24.79
2022-08-11T13:29:23.479Z,24.24
2022-08-11T13:31:53.676Z,27.65
2022-08-11T13:34:24.198Z,27.94
2022-08-11T13:36:56.762Z,26.88
2022-08-11T13:39:28.014Z,24.42
2022-08-11T13:41:59.545Z,24.53
2022-08-11T13:44:31.387Z,23.92
2022-08-11T13:47:02.582Z,27.50
2022-08-11T13:49:32.499Z,23.33
2022-08-11T13:52:04.044Z,28.13
2022-08-11T13:54:36.111Z,25.26
2022-08-11T13:57:38.569Z,24.37
2022-08-11T14:00:09.805Z,26.57
2022-08-11T14:02:54.667Z,26.95
2022-08-11T14:05:28.573Z,25.90
2022-08-11T14:08:02.327Z,23.32
2022-08-11T14:10:34.193Z,26.21
2022-08-11T14:13:25.480Z,27.54
2022-08-11T14:15:54.888Z,25.31
2022-08-11T14:18:28.464Z,25.85
2022-08-11T14:21:17.171Z,25.19
2022-08-11T14:23:49.431Z,26.79
2022-08-11T14:26:26.394Z,25.12
2022-08-11T14:28:59.158Z,23.92
2022-08-11T14:31:30.092Z,24.57
2022-08-11T14:34:04.150Z,26.94
2022-08-11T14:36:35.943Z,24.14
2022-08-11T14:39:13.066Z,25.09
2022-08-11T14:42:08.500Z,26.93
2022-08-11T14:45:02.062Z,24.61
2022-08-11T14:47:34.094Z,25.78
2022-08-11T14:50:11.391Z,24.26
2022-08-11T14:52:46.782Z,26.41
2022-08-11T14:55:35.314Z,26.01
2022-08-11T14:58:05.160Z,24.07
2022-08-11T15:00:35.315Z,25.09
2022-08-11T15:03:11.187Z,24.86
2022-08-11T15:05:57.127Z,25.65
2022-08-11T15:08:48.530Z,24.19
2022-08-11T15:11:34.126Z,25.29
2022-08-11T15:14:07.269Z,27.48
2022-08-11T15:16:55.177Z,24.92
2022-08-11T15:19:40.366Z,27.03
2022-08-11T15:22:39.824Z,25.26
2022-08-11T15:25:09.354Z,24.23
2022-08-11T15:27:58.379Z,24.35
2022-08-11T15:30:45.901Z,24.75
2022-08-11T15:33:35.616Z,24.22
2022-08-11T15:36:27.783Z,24.62
2022-08-11T15:39:00.156Z,24.53
2022-08-11T15:41:58.325Z,24.38
2022-08-11T15:45:04.883Z,23.53
2022-08-11T15:47:41.647Z,24.41
2022-08-11T15:50:15.816Z,24.03
2022-08-11T15:52:51.061Z,23.44
2022-08-11T15:55:20.928Z,24.65
2022-08-11T15:58:09.177Z,23.29
2022-08-11T16:01:08.674Z,23.34
2022-08-11T16:04:07.693Z,23.83
2022-08-11T16:06:42.791Z,24.00
2022-08-11T16:09:19.811Z,23.08
2022-08-11T16:11:49.898Z,24.12
2022-08-11T16:14:38.127Z,23.81
2022-08-11T16:17:11.387Z,23.53
2022-08-11T16:19:43.901Z,23.96
2022-08-11T16:22:16.201Z,23.67
2022-08-11T16:27:03.506Z,23.93
2022-08-11T16:27:39.981Z,23.98
2022-08-11T16:30:10.355Z,23.86
2022-08-11T16:32:43.147Z,24.22
2022-08-11T16:35:33.228Z,24.35
2022-08-11T16:38:21.519Z,23.06
2022-08-11T16:40:54.624Z,23.20
2022-08-11T16:43:43.591Z,23.79
2022-08-11T16:46:32.617Z,23.86
2022-08-11T16:49:05.707Z,24.05
2022-08-11T16:51:34.636Z,22.76
2022-08-11T16:54:05.724Z,23.47
2022-08-11T16:56:38.593Z,23.63
2022-08-11T16:59:16.606Z,23.60
2022-08-11T17:01:53.514Z,24.14
2022-08-11T17:04:55.448Z,24.20
2022-08-11T17:07:44.599Z,24.24
2022-08-11T17:10:51.924Z,24.66
2022-08-11T17:13:28.841Z,24.26
2022-08-11T17:16:09.052Z,23.92
2022-08-11T17:18:50.069Z,24.54
2022-08-11T17:21:26.331Z,24.45
2022-08-11T17:23:57.127Z,24.35
2022-08-11T17:26:51.576Z,23.97
2022-08-11T17:29:24.572Z,24.84
2022-08-11T17:32:11.544Z,25.96
2022-08-11T17:35:10.176Z,25.43
2022-08-11T17:37:41.739Z,25.68
2022-08-11T17:40:13.436Z,25.77
2022-08-11T17:43:01.733Z,24.83
2022-08-11T17:45:48.643Z,25.28
2022-08-11T17:48:27.665Z,25.16
2022-08-11T17:50:59.240Z,25.39
2022-08-11T17:54:10.164Z,25.75
2022-08-11T17:56:56.461Z,25.35
2022-08-11T17:59:43.824Z,25.84
2022-08-11T18:02:36.916Z,25.14
2022-08-11T18:05:12.349Z,25.37
2022-08-11T18:08:00.650Z,24.85
2022-08-11T18:10:51.422Z,25.00
2022-08-11T18:13:40.483Z,26.20
2022-08-11T18:16:27.421Z,25.95
2022-08-11T18:19:14.305Z,25.74
2022-08-11T18:22:14.207Z,25.93
2022-08-11T18:25:08.984Z,25.94
2022-08-11T18:28:00.629Z,26.08
2022-08-11T18:30:49.436Z,25.97
2022-08-11T18:34:03.721Z,26.16
2022-08-11T18:36:52.831Z,25.91
2022-08-11T18:39:42.151Z,26.37
2022-08-11T18:42:33.919Z,26.64
2022-08-11T18:45:26.221Z,26.54
2022-08-11T18:48:20.820Z,26.51
2022-08-11T18:51:30.447Z,27.13
2022-08-11T18:54:18.959Z,26.54
2022-08-11T18:57:06.407Z,26.82
2022-08-11T18:59:57.061Z,26.39
2022-08-11T19:02:49.598Z,26.19
2022-08-11T19:06:31.895Z,27.33
2022-08-11T19:08:49.702Z,26.91
2022-08-11T19:11:42.611Z,28.62
2022-08-11T19:14:30.923Z,29.52
2022-08-11T19:17:43.971Z,29.96
2022-08-11T19:20:30.176Z,29.77
2022-08-11T19:23:17.666Z,29.47
2022-08-11T19:26:05.442Z,30.53
2022-08-11T19:28:53.290Z,29.44
2022-08-11T19:31:44.019Z,31.54
2022-08-11T19:34:32.574Z,34.26
2022-08-11T19:37:24.767Z,35.63
2022-08-11T19:40:12.744Z,34.39
2022-08-11T19:43:01.639Z,34.91
2022-08-11T19:45:52.802Z,33.45
2022-08-11T19:48:41.308Z,34.06
2022-08-11T19:51:28.872Z,33.59
2022-08-11T19:54:17.635Z,34.48
2022-08-11T19:57:06.581Z,34.47
2022-08-11T19:59:54.092Z,34.03
2022-08-11T20:02:40.543Z,34.56
2022-08-11T20:05:27.660Z,35.02
2022-08-11T20:08:16.827Z,34.61
2022-08-11T20:11:08.533Z,34.33
2022-08-11T20:13:56.555Z,34.54
2022-08-11T20:16:44.309Z,35.00
2022-08-11T20:19:55.288Z,34.73
2022-08-11T20:22:38.801Z,34.80
2022-08-11T20:25:26.982Z,35.05
2022-08-11T20:28:15.437Z,34.38
2022-08-11T20:31:04.367Z,34.55
2022-08-11T20:33:51.645Z,34.63
2022-08-11T20:36:38.157Z,34.90
2022-08-11T20:39:25.719Z,34.54
2022-08-11T20:42:13.895Z,34.58
2022-08-11T20:45:02.716Z,34.78
2022-08-11T20:47:59.602Z,34.90
2022-08-11T20:50:47.694Z,35.11
2022-08-11T20:53:39.148Z,34.71
2022-08-11T20:56:28.258Z,34.64
2022-08-11T20:59:18.309Z,35.44
2022-08-11T21:02:09.752Z,34.68
2022-08-11T21:04:57.191Z,34.71
2022-08-11T21:07:55.505Z,35.02
2022-08-11T21:10:46.726Z,34.78
2022-08-11T21:13:36.955Z,35.08
2022-08-11T21:16:27.283Z,34.80
2022-08-11T21:20:01.636Z,34.95
2022-08-11T21:22:33.722Z,35.40
2022-08-11T21:25:21.303Z,35.51
2022-08-11T21:28:10.786Z,35.82
2022-08-11T21:30:58.424Z,35.99
2022-08-11T21:33:47.071Z,36.00
2022-08-11T21:36:36.516Z,35.88
2022-08-11T21:39:25.820Z,35.98
2022-08-11T21:42:13.082Z,35.91
2022-08-11T21:45:01.582Z,35.95
2022-08-11T21:47:49.435Z,36.00
2022-08-11T21:50:47.652Z,36.09
2022-08-11T21:53:36.253Z,36.04
2022-08-11T21:56:26.192Z,36.29
2022-08-11T21:59:14.982Z,36.45
2022-08-11T22:02:01.888Z,36.34
2022-08-11T22:04:50.948Z,36.51
2022-08-11T22:07:40.886Z,37.00
2022-08-11T22:10:42.176Z,36.75
2022-08-11T22:13:30.542Z,36.42
2022-08-11T22:16:17.428Z,36.42
2022-08-11T22:19:04.960Z,36.13
2022-08-11T22:22:03.767Z,36.20
2022-08-11T22:24:51.997Z,36.29
2022-08-11T22:27:39.896Z,36.23
2022-08-11T22:30:28.302Z,36.23
2022-08-11T22:33:16.593Z,36.05
2022-08-11T22:36:05.402Z,36.56
2022-08-11T22:38:53.634Z,36.63
2022-08-11T22:41:40.709Z,36.24
2022-08-11T22:44:28.556Z,36.54
2022-08-11T22:47:18.348Z,36.81
2022-08-11T22:50:08.586Z,36.34
2022-08-11T22:52:55.475Z,36.07
2022-08-11T22:55:43.004Z,36.07
2022-08-11T22:58:30.487Z,36.29
2022-08-11T23:01:18.606Z,35.73
2022-08-11T23:04:06.658Z,36.21
2022-08-11T23:06:53.976Z,36.87
2022-08-11T23:09:42.077Z,37.13
2022-08-11T23:12:28.680Z,36.83
2022-08-11T23:15:15.680Z,36.52
2022-08-11T23:18:04.209Z,37.02
2022-08-11T23:20:54.585Z,37.15
2022-08-11T23:23:43.981Z,37.46
2022-08-11T23:26:30.423Z,37.21
2022-08-11T23:29:18.342Z,36.82
2022-08-11T23:32:06.087Z,37.00
2022-08-11T23:35:36.969Z,36.96
2022-08-11T23:38:03.013Z,37.19
2022-08-11T23:40:49.216Z,37.26
2022-08-11T23:43:38.829Z,37.35
2022-08-11T23:46:25.313Z,37.31
2022-08-11T23:49:15.197Z,37.50
2022-08-11T23:52:03.633Z,37.42
2022-08-11T23:54:50.892Z,36.87
2022-08-11T23:57:37.348Z,37.66
